Time;durP1;ratioP1;P1;durP2;ratioP2;P2;SDS_P1;SDS_P2;PMS_P1;PMS_P2;Temp;Humidity;BMP_temperature;BMP_pressure;BME280_temperature;BME280_humidity;BME280_pressure;Samples;Min_cycle;Max_cycle;Signal;HPM_P1;HPM_P2
2023/09/07 00:02:23;;;;;;;7.07;5.88;;;18.10;99.90;;;-141.84;67.50;21041.56;5023609;28;20305;-60
2023/09/07 00:05:09;;;;;;;6.28;5.68;;;18.00;99.90;;;-141.84;67.91;21043.59;5023780;28;20717;-60
2023/09/07 00:07:37;;;;;;;6.45;5.85;;;18.00;99.90;;;-141.84;68.41;21041.56;5023952;28;20380;-61
2023/09/07 00:10:07;;;;;;;7.63;6.60;;;18.00;99.90;;;-141.84;68.24;21053.78;5024086;28;20607;-59
2023/09/07 00:12:39;;;;;;;6.20;5.60;;;17.90;99.90;;;-141.84;68.65;21029.38;5022464;28;20230;-59
2023/09/07 00:15:10;;;;;;;6.53;5.88;;;17.90;99.90;;;-141.84;68.66;21057.84;5024141;28;20206;-60
2023/09/07 00:17:38;;;;;;;6.55;5.80;;;17.90;99.90;;;-141.84;69.22;20976.53;5023688;28;20198;-60
2023/09/07 00:20:14;;;;;;;6.45;5.90;;;17.90;99.90;;;-141.84;69.62;20980.59;5023633;28;20229;-60
2023/09/07 00:22:42;;;;;;;7.72;5.88;;;17.80;99.90;;;-141.84;69.55;20974.50;5016610;28;20237;-61
2023/09/07 00:25:10;;;;;;;6.00;5.43;;;17.80;99.90;;;-141.84;69.90;20978.56;5032456;28;20274;-60
2023/09/07 00:27:39;;;;;;;6.53;5.85;;;17.70;99.90;;;-141.84;69.50;21009.03;5043213;28;20233;-60
2023/09/07 00:30:09;;;;;;;6.35;5.75;;;17.80;99.90;;;-141.84;69.94;20944.00;5043724;28;20684;-60
2023/09/07 00:32:38;;;;;;;6.55;5.97;;;17.70;99.90;;;-141.84;70.27;20956.19;5038454;28;20217;-62
2023/09/07 00:35:09;;;;;;;6.80;6.20;;;17.60;99.90;;;-141.84;70.54;20931.78;5027432;28;20782;-60
2023/09/07 00:37:39;;;;;;;6.82;6.22;;;17.60;99.90;;;-141.84;70.76;20958.22;5023180;28;20268;-60
2023/09/07 00:40:09;;;;;;;5.95;5.35;;;17.60;99.90;;;-141.84;71.05;20925.69;5022727;28;20233;-60
2023/09/07 00:42:38;;;;;;;8.20;6.10;;;17.60;99.90;;;-141.84;70.59;20937.91;5016269;28;20265;-60
2023/09/07 00:45:07;;;;;;;7.20;5.82;;;17.60;99.90;;;-141.84;70.94;20935.88;5023182;28;20232;-61
2023/09/07 00:47:36;;;;;;;6.75;6.05;;;17.50;99.90;;;-141.84;70.74;20919.59;5023751;28;20210;-60
2023/09/07 00:50:08;;;;;;;6.88;6.25;;;17.60;99.90;;;-141.84;70.48;20950.09;5022889;28;20268;-60
2023/09/07 00:52:39;;;;;;;7.57;6.63;;;17.60;99.90;;;-141.84;70.29;20962.28;5021264;28;20308;-60
2023/09/07 00:55:10;;;;;;;8.70;6.70;;;17.60;99.90;;;-141.84;70.44;20923.66;5032701;28;20237;-60
2023/09/07 00:57:42;;;;;;;6.78;6.18;;;17.60;99.90;;;-141.84;70.16;20982.63;5022798;28;20234;-60
2023/09/07 01:00:12;;;;;;;7.65;6.80;;;17.70;99.90;;;-141.84;70.29;20933.81;5022528;28;20210;-59
2023/09/07 01:02:42;;;;;;;7.80;6.85;;;17.70;99.90;;;-141.84;70.54;20915.53;5016234;28;20312;-60
2023/09/07 01:05:12;;;;;;;8.18;6.53;;;17.60;99.90;;;-141.84;70.53;20899.28;5022314;28;20298;-60
2023/09/07 01:07:47;;;;;;;8.07;6.05;;;17.60;99.90;;;-141.84;70.78;20876.91;5022482;28;20226;-61
2023/09/07 01:10:16;;;;;;;7.95;6.80;;;17.60;99.90;;;-141.84;70.64;20909.44;5022945;28;20345;-60
2023/09/07 01:12:44;;;;;;;6.90;6.20;;;17.60;99.90;;;-141.84;71.22;20903.34;5015057;28;20520;-60
2023/09/07 01:15:12;;;;;;;7.25;6.55;;;17.60;99.90;;;-141.84;71.64;20844.38;5022970;28;20682;-60
2023/09/07 01:17:42;;;;;;;7.60;6.80;;;17.50;99.90;;;-141.84;71.52;20842.34;5022844;28;20281;-60
2023/09/07 01:20:16;;;;;;;7.32;6.65;;;17.40;99.90;;;-141.84;72.03;20868.78;5022512;28;20236;-61
2023/09/07 01:22:47;;;;;;;7.82;6.72;;;17.40;99.90;;;-141.84;71.80;20856.56;5014889;28;20236;-59
2023/09/07 01:25:16;;;;;;;8.88;6.82;;;17.40;99.90;;;-141.84;71.78;20805.75;5035203;28;20249;-60
2023/09/07 01:27:44;;;;;;;6.93;6.32;;;17.40;99.90;;;-141.84;72.18;20793.56;5042174;28;20224;-60
2023/09/07 01:30:13;;;;;;;8.30;7.50;;;17.40;99.90;;;-141.84;71.94;20897.25;5035839;28;20275;-61
2023/09/07 01:32:41;;;;;;;7.18;6.47;;;17.40;99.90;;;-141.84;72.33;20822.03;5015577;28;20226;-59
2023/09/07 01:35:12;;;;;;;8.05;7.25;;;17.30;99.90;;;-141.84;72.42;20813.88;5022373;28;20276;-60
2023/09/07 01:37:40;;;;;;;8.02;7.22;;;17.30;99.90;;;-141.84;72.33;20824.06;5022332;28;20250;-59
2023/09/07 01:40:11;;;;;;;8.07;7.00;;;17.30;99.90;;;-141.84;71.83;20791.53;5022109;28;20254;-59
2023/09/07 01:42:39;;;;;;;8.15;7.28;;;17.30;99.90;;;-141.84;72.42;20807.78;5014208;28;20225;-59
2023/09/07 01:45:09;;;;;;;8.38;7.53;;;17.30;99.90;;;-141.84;72.36;20793.56;5022548;28;20249;-59
2023/09/07 01:47:37;;;;;;;8.23;7.10;;;17.30;99.90;;;-141.84;72.90;20777.28;5022644;28;20260;-60
2023/09/07 01:50:07;;;;;;;8.60;7.80;;;17.20;99.90;;;-141.84;72.64;20793.56;5022327;28;20253;-59
2023/09/07 01:52:35;;;;;;;7.50;6.80;;;17.20;99.90;;;-141.84;72.92;20787.47;5021857;28;20237;-60
2023/09/07 01:55:03;;;;;;;8.52;7.70;;;17.20;99.90;;;-141.84;73.45;20726.47;5017669;28;20790;-59
2023/09/07 01:57:34;;;;;;;8.52;7.18;;;17.20;99.90;;;-141.84;73.52;20740.69;5024750;28;20258;-60
2023/09/07 02:00:04;;;;;;;8.43;7.63;;;17.10;99.90;;;-141.84;73.46;20732.56;5025838;28;20744;-60
2023/09/07 02:02:32;;;;;;;8.27;7.30;;;17.10;99.90;;;-141.84;73.08;20759.00;5026406;28;20264;-60
2023/09/07 02:05:01;;;;;;;7.75;6.93;;;17.20;99.90;;;-141.84;73.50;20728.50;5019098;28;20233;-59
2023/09/07 02:07:29;;;;;;;8.70;8.00;;;17.10;99.90;;;-141.84;73.98;20720.38;5026209;28;20490;-61
2023/09/07 02:09:57;;;;;;;8.50;7.50;;;17.10;99.90;;;-141.84;73.84;20748.84;5025566;28;20308;-60
2023/09/07 02:12:25;;;;;;;7.78;7.05;;;17.00;99.90;;;-141.84;72.77;20765.09;5025942;28;20295;-59
2023/09/07 02:14:55;;;;;;;8.70;7.80;;;17.20;99.90;;;-141.84;73.11;20759.00;5018257;28;20237;-61
2023/09/07 02:17:24;;;;;;;9.02;7.50;;;17.10;99.90;;;-141.84;73.56;20710.22;5006415;28;20309;-60
2023/09/07 02:19:52;;;;;;;9.60;7.88;;;17.10;99.90;;;-141.84;73.48;20765.09;5022248;28;20237;-60
2023/09/07 02:22:20;;;;;;;8.70;7.72;;;17.10;99.90;;;-141.84;73.85;20704.13;5025917;28;20313;-59
2023/09/07 02:24:48;;;;;;;8.85;7.95;;;17.10;99.90;;;-141.84;73.65;20700.03;5026416;28;20812;-61
2023/09/07 02:27:17;;;;;;;8.98;8.18;;;17.10;99.90;;;-141.84;73.51;20754.94;5032117;28;20321;-59
2023/09/07 02:29:45;;;;;;;9.05;8.10;;;17.10;99.90;;;-141.84;74.01;20685.81;5026426;28;20544;-60
2023/09/07 02:32:15;;;;;;;10.77;7.72;;;17.00;99.90;;;-141.84;74.54;20671.59;5025871;28;20245;-60
2023/09/07 02:34:43;;;;;;;8.77;7.95;;;16.90;99.90;;;-141.84;74.78;20628.91;5018336;28;20321;-60
2023/09/07 02:37:11;;;;;;;8.65;7.80;;;16.90;99.90;;;-141.84;75.08;20614.66;5025404;28;20313;-60
2023/09/07 02:39:39;;;;;;;7.97;7.07;;;16.90;99.90;;;-141.84;75.12;20643.13;5025360;28;20229;-60
2023/09/07 02:42:08;;;;;;;7.93;7.15;;;16.80;99.90;;;-141.84;75.53;20643.13;5024877;28;20260;-60
2023/09/07 02:44:37;;;;;;;8.82;7.85;;;16.80;99.90;;;-141.84;75.32;20653.28;5023677;28;20320;-59
2023/09/07 02:47:05;;;;;;;8.77;7.88;;;16.80;99.90;;;-141.84;75.66;20624.84;5024729;28;20321;-59
2023/09/07 02:49:35;;;;;;;9.27;8.38;;;16.70;99.90;;;-141.84;75.52;20669.56;5025351;28;20287;-60
2023/09/07 02:52:03;;;;;;;9.15;8.25;;;16.70;99.90;;;-141.84;75.26;20639.06;5025532;28;20276;-60
2023/09/07 02:54:32;;;;;;;8.05;7.22;;;16.80;99.90;;;-141.84;75.52;20626.88;5031503;28;20303;-59
2023/09/07 02:57:00;;;;;;;9.93;7.95;;;16.80;99.90;;;-141.84;75.96;20610.59;5036566;28;20237;-59
2023/09/07 02:59:28;;;;;;;11.65;8.07;;;16.70;99.90;;;-141.84;75.61;20618.72;5045329;28;20205;-59
2023/09/07 03:01:56;;;;;;;8.95;8.10;;;16.70;99.90;;;-141.84;76.08;20567.91;5041590;28;20309;-59
2023/09/07 03:04:24;;;;;;;8.65;7.85;;;16.60;99.90;;;-141.84;76.03;20614.66;5025129;28;20229;-59
2023/09/07 03:06:54;;;;;;;8.30;7.50;;;16.70;99.90;;;-141.84;76.28;20582.16;5017837;28;20237;-60
2023/09/07 03:09:22;;;;;;;9.77;8.05;;;16.60;99.90;;;-141.84;76.64;20602.47;5024869;28;20612;-60
2023/09/07 03:11:50;;;;;;;9.77;7.72;;;16.60;99.90;;;-141.84;76.63;20608.56;5025274;28;20234;-60
2023/09/07 03:14:19;;;;;;;9.57;8.25;;;16.60;99.90;;;-141.84;77.25;20525.22;5024365;28;20224;-59
2023/09/07 03:16:50;;;;;;;8.98;7.97;;;16.50;99.90;;;-141.84;78.11;20480.50;5017118;28;20237;-59
2023/09/07 03:19:18;;;;;;;9.27;7.82;;;16.40;99.90;;;-141.84;78.78;20502.88;5024634;28;20222;-60
2023/09/07 03:21:46;;;;;;;13.35;8.95;;;16.30;99.90;;;-141.84;78.51;20513.03;5028361;28;20264;-59
2023/09/07 03:24:16;;;;;;;9.18;8.27;;;16.30;99.90;;;-141.84;78.92;20498.81;5029631;28;20287;-59
2023/09/07 03:26:44;;;;;;;8.52;7.60;;;16.30;99.90;;;-141.84;79.56;20462.22;5036323;28;20202;-60
2023/09/07 03:29:12;;;;;;;9.50;8.65;;;16.20;99.90;;;-141.84;79.58;20464.25;5044201;28;20233;-60
2023/09/07 03:31:41;;;;;;;9.30;8.25;;;16.10;99.90;;;-141.84;79.75;20447.97;5044185;28;20279;-60
2023/09/07 03:34:09;;;;;;;9.18;8.27;;;16.10;99.90;;;-141.84;79.63;20454.09;5044205;28;20312;-60
2023/09/07 03:36:37;;;;;;;9.93;8.43;;;16.10;99.90;;;-141.84;80.20;20415.47;5041079;28;20237;-59
2023/09/07 03:39:07;;;;;;;10.02;8.98;;;16.00;99.90;;;-141.84;80.73;20437.81;5044721;28;20209;-60
2023/09/07 03:41:37;;;;;;;9.00;8.10;;;16.00;99.90;;;-141.84;81.15;20450.03;5045149;28;20209;-59
2023/09/07 03:44:07;;;;;;;9.10;8.20;;;15.90;99.90;;;-141.84;81.67;20382.94;5040530;28;20651;-60
2023/09/07 03:46:35;;;;;;;9.23;8.32;;;15.80;99.90;;;-141.84;82.28;20334.16;5024224;28;20234;-60
2023/09/07 03:49:04;;;;;;;9.30;8.40;;;15.80;99.90;;;-141.84;82.38;20413.44;5021648;28;20229;-61
2023/09/07 03:51:33;;;;;;;11.75;8.77;;;15.80;99.90;;;-141.84;82.34;20346.34;5024256;28;20256;-60
2023/09/07 03:54:01;;;;;;;10.10;8.70;;;15.80;99.90;;;-141.84;82.49;20342.28;5026152;28;20202;-59
2023/09/07 03:56:29;;;;;;;9.73;8.73;;;15.70;99.90;;;-141.84;82.13;20378.88;5043780;28;20244;-60
2023/09/07 03:58:58;;;;;;;9.25;8.40;;;15.70;99.90;;;-141.84;82.02;20346.34;5036387;28;20423;-60
2023/09/07 04:01:27;;;;;;;9.32;8.40;;;15.80;99.90;;;-141.84;82.30;20334.16;5043068;28;20797;-60
2023/09/07 04:03:55;;;;;;;9.18;8.27;;;15.70;99.90;;;-141.84;82.52;20334.16;5024152;28;20701;-60
2023/09/07 04:06:24;;;;;;;10.05;9.05;;;15.80;99.90;;;-141.84;82.77;20317.91;5023578;28;20305;-60
2023/09/07 04:08:52;;;;;;;11.00;9.50;;;15.70;99.90;;;-141.84;82.65;20352.44;5016600;28;20707;-60
2023/09/07 04:11:22;;;;;;;9.82;8.90;;;15.70;99.90;;;-141.84;82.23;20378.88;5023648;28;20564;-60
2023/09/07 04:13:50;;;;;;;11.32;9.20;;;15.70;99.90;;;-141.84;82.39;20350.41;5023855;28;20268;-60
2023/09/07 04:16:19;;;;;;;10.63;9.50;;;15.70;99.90;;;-141.84;82.26;20346.34;5023709;28;20222;-60
2023/09/07 04:18:48;;;;;;;9.60;8.70;;;15.70;99.90;;;-141.84;82.04;20330.09;5012515;28;20235;-61
2023/09/07 04:21:17;;;;;;;10.90;9.90;;;15.70;99.90;;;-141.84;81.46;20350.41;5006793;28;20226;-60
2023/09/07 04:23:45;;;;;;;10.10;9.10;;;15.70;99.90;;;-141.84;81.68;20340.25;5024018;28;20279;-61
2023/09/07 04:26:14;;;;;;;10.43;9.43;;;15.70;99.90;;;-141.84;81.34;20395.13;5043274;28;20221;-61
2023/09/07 04:28:42;;;;;;;9.40;8.48;;;15.70;99.90;;;-141.84;81.06;20348.38;5036110;28;20248;-60
2023/09/07 04:31:12;;;;;;;10.23;9.23;;;15.80;99.90;;;-141.84;81.08;20348.38;5043014;28;20316;-60
2023/09/07 04:33:42;;;;;;;10.02;9.02;;;15.80;99.90;;;-141.84;80.85;20348.38;5043335;28;20229;-59
2023/09/07 04:36:11;;;;;;;12.27;9.95;;;15.80;99.90;;;-141.84;80.55;20352.44;5042887;28;20205;-60
2023/09/07 04:38:40;;;;;;;11.90;10.50;;;15.80;99.90;;;-141.84;80.80;20330.09;5036630;28;20205;-61
2023/09/07 04:41:09;;;;;;;11.30;10.27;;;15.80;99.90;;;-141.84;80.23;20393.09;5032759;28;20328;-60
2023/09/07 04:43:40;;;;;;;10.60;9.60;;;15.90;99.90;;;-141.84;80.51;20362.63;5023012;28;20230;-59
2023/09/07 04:46:08;;;;;;;10.60;9.50;;;15.80;99.90;;;-141.84;80.76;20315.88;5022809;28;20234;-60
2023/09/07 04:48:37;;;;;;;11.77;9.60;;;15.80;99.90;;;-141.84;80.95;20360.59;5020546;28;20237;-60
2023/09/07 04:51:08;;;;;;;12.55;10.27;;;15.60;99.90;;;-141.84;80.41;20409.38;5020822;28;20237;-59
2023/09/07 04:53:38;;;;;;;10.65;9.50;;;15.80;99.90;;;-141.84;80.04;20397.16;5023243;28;20299;-61
2023/09/07 04:56:09;;;;;;;11.20;10.05;;;15.80;99.90;;;-141.84;80.55;20405.31;5042649;28;20286;-64
2023/09/07 04:58:37;;;;;;;11.65;10.48;;;15.90;99.90;;;-141.84;80.94;20321.97;5039542;28;20739;-60
2023/09/07 05:01:08;;;;;;;13.50;10.05;;;15.80;99.90;;;-141.84;80.52;20358.56;5042560;28;20275;-60
2023/09/07 05:03:37;;;;;;;11.50;10.30;;;15.80;99.90;;;-141.84;80.21;20399.19;5026242;28;20247;-61
2023/09/07 05:06:07;;;;;;;11.20;10.10;;;15.90;99.90;;;-141.84;80.05;20344.31;5022260;28;20466;-60
2023/09/07 05:08:36;;;;;;;11.70;10.57;;;15.90;99.90;;;-141.84;79.73;20405.31;5022017;28;20312;-60
2023/09/07 05:11:05;;;;;;;12.65;11.35;;;16.00;99.90;;;-141.84;79.75;20415.47;5022569;28;20296;-60
2023/09/07 05:13:33;;;;;;;11.07;9.98;;;16.00;99.90;;;-141.84;79.70;20368.72;5021695;28;20230;-60
2023/09/07 05:16:02;;;;;;;11.73;10.40;;;16.00;99.90;;;-141.84;79.77;20395.13;5027371;28;20225;-60
2023/09/07 05:18:31;;;;;;;10.95;9.95;;;16.10;99.90;;;-141.84;79.37;20391.06;5022594;28;20234;-61
2023/09/07 05:20:59;;;;;;;13.73;10.30;;;16.10;99.90;;;-141.84;78.27;20419.53;5014661;28;20217;-59
2023/09/07 05:23:29;;;;;;;12.77;10.50;;;16.20;99.90;;;-141.84;77.92;20443.91;5022679;28;20234;-60
2023/09/07 05:25:57;;;;;;;11.93;10.38;;;16.30;99.90;;;-141.84;77.39;20486.59;5040997;28;20309;-61
2023/09/07 05:28:25;;;;;;;11.00;9.90;;;16.40;99.90;;;-141.84;76.89;20482.53;5042769;28;20248;-60
2023/09/07 05:30:54;;;;;;;10.55;9.55;;;16.60;99.90;;;-141.84;76.59;20523.19;5034441;28;20232;-59
2023/09/07 05:33:22;;;;;;;10.95;9.73;;;16.70;99.90;;;-141.84;76.40;20535.41;5042340;28;20279;-61
2023/09/07 05:35:50;;;;;;;10.25;9.25;;;16.80;99.90;;;-141.84;75.87;20541.50;5042966;28;20201;-60
2023/09/07 05:38:18;;;;;;;11.23;10.13;;;17.00;99.90;;;-141.84;74.49;20602.47;5024594;28;20841;-60
2023/09/07 05:40:50;;;;;;;12.23;9.85;;;17.20;99.90;;;-141.84;74.47;20622.81;5014771;28;20313;-60
2023/09/07 05:43:18;;;;;;;12.07;10.23;;;17.20;99.90;;;-141.84;74.10;20637.03;5022334;28;20225;-60
2023/09/07 05:45:46;;;;;;;11.85;10.25;;;17.30;99.90;;;-141.84;73.69;20673.63;5022101;28;20238;-59
2023/09/07 05:48:16;;;;;;;11.55;10.30;;;17.40;99.90;;;-141.84;73.43;20679.72;5022314;28;20234;-60
2023/09/07 05:50:46;;;;;;;11.63;10.48;;;17.50;99.90;;;-141.84;73.33;20657.34;5014362;28;20701;-61
2023/09/07 05:53:14;;;;;;;11.68;10.50;;;17.60;99.90;;;-141.84;72.87;20716.31;5022136;28;20291;-60
2023/09/07 05:55:42;;;;;;;11.73;10.57;;;17.60;99.90;;;-141.84;72.64;20702.09;5038171;28;20229;-60
2023/09/07 05:58:14;;;;;;;12.15;10.32;;;17.60;99.90;;;-141.84;72.35;20761.03;5042219;28;20744;-59
2023/09/07 06:00:42;;;;;;;12.25;9.90;;;17.70;99.90;;;-141.84;72.21;20763.06;5035165;28;20675;-59
2023/09/07 06:03:11;;;;;;;10.40;9.38;;;17.80;99.90;;;-141.84;72.34;20722.41;5028826;28;20220;-60
2023/09/07 06:05:40;;;;;;;11.98;10.05;;;17.80;99.90;;;-141.84;72.07;20736.63;5022691;28;20326;-60
2023/09/07 06:08:08;;;;;;;10.90;9.60;;;17.90;99.90;;;-141.84;72.02;20754.94;5022037;28;20262;-61
2023/09/07 06:10:38;;;;;;;10.02;9.02;;;17.90;99.90;;;-141.84;71.88;20744.78;5024082;28;20275;-61
2023/09/07 06:13:06;;;;;;;10.20;9.30;;;18.00;99.90;;;-141.84;71.89;20765.09;5022131;28;20771;-60
2023/09/07 06:15:35;;;;;;;10.60;9.45;;;18.00;99.90;;;-141.84;72.08;20785.44;5022197;28;20655;-60
2023/09/07 06:18:04;;;;;;;12.00;10.15;;;18.10;99.90;;;-141.84;71.20;20820.00;5021380;28;20313;-60
2023/09/07 06:20:34;;;;;;;10.73;9.73;;;18.20;99.90;;;-141.84;70.69;20820.00;5022380;28;20568;-60
2023/09/07 06:23:02;;;;;;;10.40;9.40;;;18.30;99.90;;;-141.84;70.15;20844.38;5017214;28;20740;-63
2023/09/07 06:25:30;;;;;;;13.00;9.45;;;18.40;99.90;;;-141.84;69.94;20862.69;5036358;28;20336;-59
2023/09/07 06:27:59;;;;;;;10.18;9.18;;;18.50;99.90;;;-141.84;69.55;20872.84;5041894;28;20315;-59
2023/09/07 06:30:27;;;;;;;11.50;9.93;;;18.50;99.90;;;-141.84;69.80;20868.78;5041771;28;20244;-61
2023/09/07 06:32:57;;;;;;;11.10;9.25;;;18.50;99.90;;;-141.84;69.71;20909.44;5029655;28;20246;-60
2023/09/07 06:35:25;;;;;;;12.80;10.50;;;18.60;99.90;;;-141.84;68.92;20935.88;5022125;28;20206;-60
2023/09/07 06:37:54;;;;;;;13.20;9.70;;;18.60;99.90;;;-141.84;69.14;20899.28;5021032;28;20254;-59
2023/09/07 06:40:22;;;;;;;12.10;9.30;;;18.60;99.90;;;-141.84;69.52;20923.66;5021934;28;20288;-59
2023/09/07 06:42:50;;;;;;;11.88;9.20;;;18.60;99.90;;;-141.84;69.97;20897.25;5015045;28;20303;-61
2023/09/07 06:45:18;;;;;;;10.60;9.43;;;18.60;99.90;;;-141.84;69.60;20899.28;5025080;28;20238;-61
2023/09/07 06:47:46;;;;;;;12.13;8.68;;;18.60;99.90;;;-141.84;68.39;20929.75;5025929;28;20237;-61
2023/09/07 06:50:16;;;;;;;10.00;9.00;;;18.70;99.90;;;-141.84;66.77;21043.59;5025062;28;20693;-59
2023/09/07 06:52:44;;;;;;;9.23;8.32;;;18.80;99.90;;;-141.84;66.99;21002.94;5016044;28;20253;-60
2023/09/07 06:55:12;;;;;;;10.23;8.82;;;18.80;99.90;;;-141.84;66.35;21037.50;5036957;28;20233;-61
2023/09/07 06:57:40;;;;;;;9.82;7.70;;;18.90;99.90;;;-141.84;66.77;21017.19;5045066;28;20312;-61
2023/09/07 07:00:11;;;;;;;9.95;7.45;;;18.90;99.90;;;-141.84;66.89;21013.13;5032229;28;20297;-58
2023/09/07 07:02:40;;;;;;;9.23;8.32;;;19.00;99.90;;;-141.84;65.70;21045.63;5017662;28;20249;-63
2023/09/07 07:05:08;;;;;;;10.43;7.57;;;19.00;99.90;;;-141.84;65.83;21061.91;5024872;28;20229;-60
2023/09/07 07:07:38;;;;;;;7.88;7.18;;;19.10;99.90;;;-141.84;65.69;21053.78;5033861;28;20322;-61
2023/09/07 07:10:09;;;;;;;10.40;7.43;;;19.20;99.90;;;-141.84;64.80;21161.53;5043645;28;20252;-59
2023/09/07 07:12:40;;;;;;;8.32;7.18;;;19.40;99.90;;;-141.84;63.61;21232.69;5020222;28;20226;-60
2023/09/07 07:15:11;;;;;;;9.02;7.10;;;19.60;99.90;;;-141.84;63.08;21265.22;5024042;28;20214;-60
2023/09/07 07:17:39;;;;;;;7.65;6.45;;;19.70;99.90;;;-141.84;62.79;21281.47;5025084;28;20230;-60
2023/09/07 07:20:09;;;;;;;8.43;6.55;;;19.80;99.90;;;-141.84;63.10;21228.63;5024666;28;20229;-60
2023/09/07 07:22:39;;;;;;;7.82;6.45;;;19.90;99.90;;;-141.84;63.10;21240.81;5018004;28;20248;-60
2023/09/07 07:25:10;;;;;;;6.28;5.68;;;19.90;99.90;;;-141.84;62.89;21253.00;5035866;28;20484;-61
2023/09/07 07:27:38;;;;;;;7.10;6.40;;;20.00;99.90;;;-141.84;62.77;21287.56;5004861;28;20230;-60
2023/09/07 07:30:07;;;;;;;9.90;7.40;;;20.10;99.90;;;-141.84;62.46;21320.09;5016391;28;20696;-59
2023/09/07 07:32:36;;;;;;;8.57;7.43;;;20.30;99.90;;;-141.84;61.90;21421.75;5023327;28;20681;-61
2023/09/07 07:35:05;;;;;;;7.82;6.88;;;20.20;99.90;;;-141.84;61.81;21356.69;5020805;28;20287;-59
2023/09/07 07:37:33;;;;;;;10.52;7.10;;;20.30;99.90;;;-141.84;61.44;21415.66;5024441;28;20292;-60
2023/09/07 07:40:04;;;;;;;8.55;6.50;;;20.30;99.90;;;-141.84;61.55;21397.38;5024595;28;20240;-59
2023/09/07 07:42:32;;;;;;;7.82;7.03;;;20.40;99.90;;;-141.84;61.13;21377.03;5024507;28;20237;-60
2023/09/07 07:45:01;;;;;;;9.73;6.97;;;20.40;99.90;;;-141.84;60.67;21456.34;5017729;28;20798;-60
2023/09/07 07:47:29;;;;;;;7.45;6.50;;;20.50;99.90;;;-141.84;60.53;21452.25;5024553;28;20728;-60
2023/09/07 07:49:57;;;;;;;7.25;6.55;;;20.60;99.90;;;-141.84;60.23;21529.53;5024396;28;20300;-65
2023/09/07 07:52:26;;;;;;;6.70;6.03;;;20.70;99.90;;;-141.84;60.28;21468.53;5024133;28;20279;-64
2023/09/07 07:54:54;;;;;;;8.70;6.95;;;20.80;99.90;;;-141.84;60.40;21486.81;5023434;28;20233;-64
2023/09/07 07:57:24;;;;;;;7.97;6.10;;;20.90;99.90;;;-141.84;59.97;21525.47;5024188;28;20300;-64
2023/09/07 07:59:52;;;;;;;7.82;7.10;;;21.00;99.90;;;-141.84;59.42;21574.25;5024703;28;20587;-65
2023/09/07 08:02:20;;;;;;;7.20;6.60;;;21.10;99.90;;;-141.84;59.14;21584.44;5023705;28;20229;-63
2023/09/07 08:04:49;;;;;;;7.97;7.03;;;21.20;99.90;;;-141.84;59.13;21590.53;5034954;28;20331;-64
2023/09/07 08:07:17;;;;;;;7.40;6.65;;;21.20;99.90;;;-141.84;58.79;21635.25;5044197;28;20245;-64
2023/09/07 08:09:46;;;;;;;9.40;7.30;;;21.30;99.90;;;-141.84;59.05;21606.78;5043991;28;20666;-63
2023/09/07 08:12:15;;;;;;;9.75;7.75;;;21.40;99.90;;;-141.84;58.02;21661.69;5030370;28;20253;-64
2023/09/07 08:14:44;;;;;;;8.70;7.45;;;21.50;99.90;;;-141.84;57.33;21696.25;5016242;28;20206;-63
2023/09/07 08:17:13;;;;;;;8.98;7.30;;;21.60;99.90;;;-141.84;57.52;21757.25;5023946;28;20808;-64
2023/09/07 08:19:41;;;;;;;7.78;6.82;;;21.70;99.90;;;-141.84;57.39;21743.03;5023747;28;20605;-59
2023/09/07 08:22:09;;;;;;;12.43;7.18;;;21.80;99.90;;;-141.84;57.46;21759.28;5023839;28;20261;-60
2023/09/07 08:24:38;;;;;;;7.30;6.32;;;21.80;99.90;;;-141.84;57.00;21818.25;5027731;28;20253;-61
2023/09/07 08:27:06;;;;;;;7.82;6.65;;;21.90;99.90;;;-141.84;56.54;21808.09;5040908;28;20229;-60
2023/09/07 08:29:34;;;;;;;7.43;6.20;;;22.00;99.90;;;-141.84;56.49;21826.41;5043789;28;20267;-60
2023/09/07 08:32:04;;;;;;;8.20;6.30;;;22.10;99.90;;;-141.84;56.20;21873.16;5043463;28;20784;-59
2023/09/07 08:34:35;;;;;;;6.63;6.03;;;22.10;99.90;;;-141.84;56.17;21860.97;5043877;28;20229;-60
2023/09/07 08:37:05;;;;;;;7.10;6.20;;;22.20;99.90;;;-141.84;55.29;21895.53;5039663;28;20241;-60
2023/09/07 08:39:34;;;;;;;8.30;6.45;;;22.30;99.90;;;-141.84;54.47;21950.44;5043406;28;20743;-61
2023/09/07 08:42:04;;;;;;;9.00;5.97;;;22.40;99.90;;;-141.84;54.93;21942.31;5038560;28;20210;-60
2023/09/07 08:44:37;;;;;;;6.03;5.50;;;22.50;99.90;;;-141.84;54.93;21999.25;5023580;28;20234;-60
2023/09/07 08:47:08;;;;;;;5.80;5.28;;;22.60;99.90;;;-141.84;54.58;21976.88;5024027;28;20325;-60
2023/09/07 08:49:37;;;;;;;7.70;5.90;;;22.70;99.90;;;-141.84;54.22;22029.75;5023060;28;20316;-59
2023/09/07 08:52:06;;;;;;;5.80;5.30;;;22.80;99.90;;;-141.84;54.43;22015.50;5023216;28;20313;-60
2023/09/07 08:54:38;;;;;;;5.85;5.25;;;22.80;99.90;;;-141.84;54.46;22033.81;5030167;28;20240;-62
2023/09/07 08:57:07;;;;;;;6.47;5.78;;;22.90;99.90;;;-141.84;54.66;22054.13;5043139;28;20233;-60
2023/09/07 08:59:36;;;;;;;6.50;5.82;;;23.00;99.90;;;-141.84;53.96;22096.84;5042777;28;20225;-58
2023/09/07 09:02:10;;;;;;;6.05;5.45;;;23.10;99.90;;;-141.84;53.78;22113.13;5038805;28;20233;-60
2023/09/07 09:04:40;;;;;;;7.22;5.18;;;23.10;99.90;;;-141.84;53.35;22102.94;5015783;28;20229;-60
2023/09/07 09:07:09;;;;;;;6.47;5.88;;;23.20;99.90;;;-141.84;52.96;22182.25;5022560;28;20237;-60
2023/09/07 09:09:38;;;;;;;5.68;5.18;;;23.40;99.90;;;-141.84;53.08;22168.03;5023072;28;20234;-61
2023/09/07 09:12:10;;;;;;;7.32;5.60;;;23.40;99.90;;;-141.84;52.58;22224.97;5022281;28;20531;-60
2023/09/07 09:14:40;;;;;;;6.30;5.70;;;23.50;99.90;;;-141.84;52.26;22261.56;5015604;28;20270;-62
2023/09/07 09:17:14;;;;;;;6.60;5.95;;;23.60;99.90;;;-141.84;51.72;22328.69;5022333;28;20234;-60
2023/09/07 09:19:43;;;;;;;5.97;5.38;;;23.80;99.90;;;-141.84;51.50;22316.47;5022915;28;20221;-59
2023/09/07 09:22:12;;;;;;;5.93;5.13;;;23.80;99.90;;;-141.84;51.58;22338.84;5022306;28;20228;-60
2023/09/07 09:24:41;;;;;;;6.15;4.97;;;23.90;99.90;;;-141.84;51.66;22353.09;5023089;28;20656;-62
2023/09/07 09:27:09;;;;;;;5.93;5.40;;;24.00;99.90;;;-141.84;50.98;22383.59;5042150;28;20716;-59
2023/09/07 09:29:37;;;;;;;5.90;5.13;;;24.10;99.90;;;-141.84;50.29;22412.06;5043204;28;20225;-59
2023/09/07 09:32:08;;;;;;;6.00;5.20;;;24.30;99.90;;;-141.84;50.57;22438.50;5042801;28;20750;-60
2023/09/07 09:34:38;;;;;;;5.38;4.88;;;24.30;99.90;;;-141.84;50.18;22416.13;5041102;28;20336;-59
2023/09/07 09:37:15;;;;;;;6.07;5.38;;;24.40;99.90;;;-141.84;50.18;22475.09;5042366;28;20287;-60
2023/09/07 09:39:45;;;;;;;5.70;5.20;;;24.50;99.90;;;-141.84;49.98;22509.69;5026809;28;20236;-60
2023/09/07 09:42:16;;;;;;;6.15;5.60;;;24.50;99.90;;;-141.84;50.19;22523.91;5022997;28;20241;-59
2023/09/07 09:44:46;;;;;;;6.28;5.68;;;24.60;99.90;;;-141.84;50.09;22532.06;5015180;28;20316;-58
2023/09/07 09:47:15;;;;;;;5.93;5.43;;;24.70;99.90;;;-141.84;49.23;22582.91;5022421;28;20320;-59
2023/09/07 09:49:46;;;;;;;5.90;5.40;;;24.80;99.90;;;-141.84;49.47;22586.97;5022254;28;20226;-59
2023/09/07 09:52:15;;;;;;;6.45;5.85;;;24.80;99.90;;;-141.84;49.91;22566.63;5022285;28;20233;-59
2023/09/07 09:54:44;;;;;;;5.97;5.30;;;24.90;99.90;;;-141.84;49.08;22580.84;5023043;28;20312;-60
2023/09/07 09:57:13;;;;;;;5.72;5.22;;;24.90;99.90;;;-141.84;49.07;22603.22;5042313;28;20225;-61
2023/09/07 09:59:41;;;;;;;5.40;4.90;;;24.90;99.90;;;-141.84;48.74;22623.56;5043288;28;20216;-59
2023/09/07 10:02:10;;;;;;;5.97;5.38;;;25.00;99.90;;;-141.84;48.58;22668.31;5037139;28;20303;-61
2023/09/07 10:04:39;;;;;;;5.32;4.82;;;25.10;99.90;;;-141.84;48.62;22654.06;5015321;28;20230;-59
2023/09/07 10:07:08;;;;;;;5.20;4.78;;;25.10;99.90;;;-141.84;48.47;22682.56;5022223;28;20226;-60
2023/09/07 10:09:39;;;;;;;5.75;4.85;;;25.20;99.90;;;-141.84;47.26;22729.34;5022447;28;20231;-62
2023/09/07 10:12:13;;;;;;;5.50;4.88;;;25.30;99.90;;;-141.84;46.65;22755.78;5021725;28;20238;-59